Time;durP1;ratioP1;P1;durP2;ratioP2;P2;SDS_P1;SDS_P2;PMS_P1;PMS_P2;Temp;Humidity;BMP_temperature;BMP_pressure;BME280_temperature;BME280_humidity;BME280_pressure;Samples;Min_cycle;Max_cycle;Signal;HPM_P1;HPM_P2
2021/01/02 00:00:10;;;;;;;;;;;1.40;99.90;;;;;;5079216;28;19919;-85
2021/01/02 00:02:37;;;;;;;;;;;1.40;99.90;;;;;;5093256;28;19998;-85
2021/01/02 00:05:13;;;;;;;;;;;1.40;99.90;;;;;;5092723;28;19916;-85
2021/01/02 00:07:47;;;;;;;;;;;1.40;99.90;;;;;;5093586;28;19916;-85
2021/01/02 00:10:14;;;;;;;;;;;1.30;99.90;;;;;;5092916;28;19954;-85
2021/01/02 00:12:46;;;;;;;;;;;1.30;99.90;;;;;;5096022;28;19912;-86
2021/01/02 00:15:21;;;;;;;;;;;1.30;99.90;;;;;;5092665;28;20447;-85
2021/01/02 00:18:03;;;;;;;;;;;1.40;99.90;;;;;;5093368;28;20058;-85
2021/01/02 00:20:48;;;;;;;;;;;1.40;99.90;;;;;;5092832;28;19960;-85
2021/01/02 00:23:26;;;;;;;;;;;1.30;99.90;;;;;;5078845;28;20006;-85
2021/01/02 00:25:56;;;;;;;;;;;1.30;99.90;;;;;;5093265;28;19920;-85
2021/01/02 00:28:22;;;;;;;;;;;1.30;99.90;;;;;;5092710;28;20004;-85
2021/01/02 00:31:03;;;;;;;;;;;1.20;99.90;;;;;;5093224;28;19912;-85
2021/01/02 00:33:50;;;;;;;;;;;1.20;99.90;;;;;;5092975;28;19912;-86
2021/01/02 00:36:34;;;;;;;;;;;1.20;99.90;;;;;;5093214;28;19912;-86
2021/01/02 00:39:05;;;;;;;;;;;1.20;99.90;;;;;;5103160;28;19912;-86
2021/01/02 00:41:33;;;;;;;;;;;1.20;99.90;;;;;;5216817;22;20347;-85
2021/01/02 00:44:01;;;;;;;;;;;1.30;99.90;;;;;;5092713;28;19966;-86
2021/01/02 00:46:29;;;;;;;;;;;1.30;99.90;;;;;;5093018;28;19912;-86
2021/01/02 00:48:55;;;;;;;;;;;1.30;99.90;;;;;;5092402;28;19956;-86
2021/01/02 00:51:24;;;;;;;;;;;1.30;99.90;;;;;;5092848;28;19976;-85
2021/01/02 00:53:56;;;;;;;;;;;1.30;99.90;;;;;;5092574;28;19919;-85
2021/01/02 00:57:00;;;;;;;;;;;1.30;99.90;;;;;;5095399;28;20405;-86
2021/01/02 01:00:01;;;;;;;;;;;1.30;99.90;;;;;;4976452;28;20384;-85
2021/01/02 01:02:45;;;;;;;;;;;1.30;99.90;;;;;;4976610;28;19916;-86
2021/01/02 01:05:14;;;;;;;;;;;1.30;99.90;;;;;;5071714;28;20459;-85
2021/01/02 01:07:40;;;;;;;;;;;1.30;99.90;;;;;;5065073;28;19916;-85
2021/01/02 01:12:43;;;;;;;;;;;1.20;99.90;;;;;;5147632;22;20393;-87
2021/01/02 01:15:12;;;;;;;;;;;1.20;99.90;;;;;;5223020;22;20325;-85
2021/01/02 01:17:44;;;;;;;;;;;1.20;99.90;;;;;;5112871;27;20396;-84
2021/01/02 01:20:14;;;;;;;;;;;1.20;99.90;;;;;;5116800;27;19918;-84
2021/01/02 01:22:52;;;;;;;;;;;1.10;99.90;;;;;;5115249;27;19911;-84
2021/01/02 01:25:37;;;;;;;;;;;1.10;99.90;;;;;;5105611;27;19923;-84
2021/01/02 01:28:11;;;;;;;;;;;1.10;99.90;;;;;;5134094;27;19915;-84
2021/01/02 01:30:42;;;;;;;;;;;1.10;99.90;;;;;;5105422;28;19927;-84
2021/01/02 01:33:08;;;;;;;;;;;1.10;99.90;;;;;;5125875;27;19911;-83
2021/01/02 01:35:38;;;;;;;;;;;1.00;99.90;;;;;;5116264;27;20014;-84
2021/01/02 01:38:06;;;;;;;;;;;0.90;99.90;;;;;;5192370;22;19928;-83
2021/01/02 01:40:34;;;;;;;;;;;0.90;99.90;;;;;;5072945;28;19919;-84
2021/01/02 01:43:04;;;;;;;;;;;0.90;99.90;;;;;;5072888;28;19912;-84
2021/01/02 01:45:39;;;;;;;;;;;1.00;99.90;;;;;;5211893;22;19927;-84
2021/01/02 01:48:07;;;;;;;;;;;1.00;99.90;;;;;;5116018;27;20429;-84
2021/01/02 01:50:38;;;;;;;;;;;1.10;99.90;;;;;;5116697;27;19912;-84
2021/01/02 01:53:18;;;;;;;;;;;1.00;99.90;;;;;;5117026;27;19919;-84
2021/01/02 01:55:53;;;;;;;;;;;0.90;99.90;;;;;;5103711;27;19911;-84
2021/01/02 01:58:29;;;;;;;;;;;0.90;99.90;;;;;;5116657;27;20353;-84
2021/01/02 02:01:01;;;;;;;;;;;0.90;99.90;;;;;;5114993;27;19919;-84
2021/01/02 02:03:27;;;;;;;;;;;1.00;99.90;;;;;;5116392;27;19919;-84
2021/01/02 02:06:22;;;;;;;;;;;0.90;99.90;;;;;;5108786;28;19921;-83
2021/01/02 02:08:54;;;;;;;;;;;0.90;99.90;;;;;;5087244;27;20217;-83
2021/01/02 02:11:42;;;;;;;;;;;0.90;99.90;;;;;;5116057;27;19934;-84
2021/01/02 02:14:12;;;;;;;;;;;0.90;99.90;;;;;;5211677;22;19935;-83
2021/01/02 02:16:45;;;;;;;;;;;0.80;99.90;;;;;;5092394;28;20445;-84
2021/01/02 02:19:29;;;;;;;;;;;0.80;99.90;;;;;;5080172;28;20524;-85
2021/01/02 02:21:59;;;;;;;;;;;0.90;99.90;;;;;;5095664;28;20400;-85
2021/01/02 02:24:25;;;;;;;;;;;1.00;99.90;;;;;;5205144;22;19967;-83
2021/01/02 02:26:54;;;;;;;;;;;1.00;99.90;;;;;;5094935;28;19919;-83
2021/01/02 02:29:28;;;;;;;;;;;1.00;99.90;;;;;;5095306;28;20290;-83
2021/01/02 02:32:03;;;;;;;;;;;1.00;99.90;;;;;;5095769;28;19912;-83
2021/01/02 02:34:28;;;;;;;;;;;0.90;99.90;;;;;;5094998;28;19912;-83
2021/01/02 02:36:56;;;;;;;;;;;0.80;99.90;;;;;;5095675;28;19923;-83
2021/01/02 02:39:22;;;;;;;;;;;0.80;99.90;;;;;;5094899;28;19912;-83
2021/01/02 02:41:48;;;;;;;;;;;0.90;99.90;;;;;;5095278;28;20365;-84
2021/01/02 02:44:19;;;;;;;;;;;0.90;99.90;;;;;;5094613;28;20279;-83
2021/01/02 02:46:45;;;;;;;;;;;0.90;99.90;;;;;;5196724;22;19928;-83
2021/01/02 02:49:17;;;;;;;;;;;0.90;99.90;;;;;;5071226;28;19913;-84
2021/01/02 02:51:49;;;;;;;;;;;0.90;99.90;;;;;;5071682;28;19912;-83
2021/01/02 02:54:15;;;;;;;;;;;0.90;99.90;;;;;;5070920;28;20375;-83
2021/01/02 02:56:41;;;;;;;;;;;0.80;99.90;;;;;;5184440;22;20005;-85
2021/01/02 02:59:08;;;;;;;;;;;0.90;99.90;;;;;;5190752;22;19931;-84
2021/01/02 03:01:34;;;;;;;;;;;0.80;99.90;;;;;;5071705;28;19913;-83
2021/01/02 03:03:59;;;;;;;;;;;0.80;99.90;;;;;;5085023;28;20393;-83
2021/01/02 03:06:29;;;;;;;;;;;0.90;99.90;;;;;;5071655;28;19951;-83
2021/01/02 03:08:57;;;;;;;;;;;0.90;99.90;;;;;;5181030;22;19936;-85
2021/01/02 03:11:26;;;;;;;;;;;0.90;99.90;;;;;;5070244;28;19924;-84
2021/01/02 03:13:52;;;;;;;;;;;1.00;99.90;;;;;;5070530;28;20039;-83
2021/01/02 03:16:20;;;;;;;;;;;0.90;99.90;;;;;;5179486;22;19948;-83
2021/01/02 03:18:49;;;;;;;;;;;0.90;99.90;;;;;;5061217;28;19919;-83
2021/01/02 03:21:17;;;;;;;;;;;1.00;99.90;;;;;;5070516;28;20366;-83
2021/01/02 03:23:46;;;;;;;;;;;1.00;99.90;;;;;;5070497;28;19919;-83
2021/01/02 03:26:11;;;;;;;;;;;1.00;99.90;;;;;;5070710;28;19912;-83
2021/01/02 03:28:37;;;;;;;;;;;1.00;99.90;;;;;;5070888;28;19917;-84
2021/01/02 03:31:03;;;;;;;;;;;1.10;99.90;;;;;;5070272;28;19916;-84
2021/01/02 03:33:28;;;;;;;;;;;1.10;99.90;;;;;;5056583;28;19918;-84
2021/01/02 03:35:58;;;;;;;;;;;1.00;99.90;;;;;;5058261;28;20380;-83
2021/01/02 03:38:26;;;;;;;;;;;1.00;99.90;;;;;;5068974;28;20383;-84
2021/01/02 03:40:51;;;;;;;;;;;1.00;99.90;;;;;;5069990;28;19912;-83
2021/01/02 03:43:17;;;;;;;;;;;1.00;99.90;;;;;;5070123;28;19923;-83
2021/01/02 03:45:42;;;;;;;;;;;0.90;99.90;;;;;;5070084;28;19916;-83
2021/01/02 03:48:08;;;;;;;;;;;1.00;99.90;;;;;;5056047;28;19924;-83
2021/01/02 03:50:36;;;;;;;;;;;1.00;99.90;;;;;;5069983;28;19958;-83
2021/01/02 03:53:01;;;;;;;;;;;1.00;99.90;;;;;;5076939;28;20335;-83
2021/01/02 03:55:29;;;;;;;;;;;1.00;99.90;;;;;;5056112;28;20377;-84
2021/01/02 03:57:55;;;;;;;;;;;1.00;99.90;;;;;;5070321;28;19913;-83
2021/01/02 04:00:23;;;;;;;;;;;0.90;99.90;;;;;;5052101;28;19919;-83
2021/01/02 04:02:48;;;;;;;;;;;0.90;99.90;;;;;;5066769;28;19913;-83
2021/01/02 04:05:15;;;;;;;;;;;1.00;99.90;;;;;;5054686;28;20971;-84
2021/01/02 04:07:46;;;;;;;;;;;1.00;99.90;;;;;;5070180;28;19912;-83
2021/01/02 04:10:14;;;;;;;;;;;1.10;99.90;;;;;;5069790;28;19912;-84
2021/01/02 04:12:39;;;;;;;;;;;1.00;99.90;;;;;;5084334;28;19912;-83
2021/01/02 04:15:08;;;;;;;;;;;1.00;99.90;;;;;;5069386;28;19982;-83
2021/01/02 04:17:34;;;;;;;;;;;1.00;99.90;;;;;;5068139;28;19931;-83
2021/01/02 04:19:59;;;;;;;;;;;1.00;99.90;;;;;;5057572;28;19932;-83
2021/01/02 04:22:25;;;;;;;;;;;1.00;99.90;;;;;;5070043;28;19954;-83
2021/01/02 04:24:53;;;;;;;;;;;1.00;99.90;;;;;;5063916;28;20375;-84
2021/01/02 04:27:18;;;;;;;;;;;1.10;99.90;;;;;;5069396;28;19912;-83
2021/01/02 04:29:46;;;;;;;;;;;1.10;99.90;;;;;;5182784;22;19932;-86
2021/01/02 04:32:12;;;;;;;;;;;1.10;99.90;;;;;;5069834;28;19913;-83
2021/01/02 04:34:37;;;;;;;;;;;1.00;99.90;;;;;;5069308;28;19912;-83
2021/01/02 04:37:05;;;;;;;;;;;1.00;99.90;;;;;;5182455;22;20004;-84
2021/01/02 04:39:30;;;;;;;;;;;1.00;99.90;;;;;;5188239;22;20401;-84
2021/01/02 04:41:56;;;;;;;;;;;1.00;99.90;;;;;;5069387;28;19917;-83
2021/01/02 04:44:21;;;;;;;;;;;1.10;99.90;;;;;;5069308;28;19927;-84
2021/01/02 04:46:47;;;;;;;;;;;1.10;99.90;;;;;;5069188;28;20291;-83
2021/01/02 04:49:13;;;;;;;;;;;1.00;99.90;;;;;;5069046;28;19919;-83
2021/01/02 04:51:38;;;;;;;;;;;1.00;99.90;;;;;;5069316;28;20010;-83
2021/01/02 04:54:05;;;;;;;;;;;1.00;99.90;;;;;;5071850;28;19974;-83
2021/01/02 04:56:34;;;;;;;;;;;1.00;99.90;;;;;;5063297;28;20003;-83
2021/01/02 04:59:00;;;;;;;;;;;1.00;99.90;;;;;;5069542;28;19919;-83
2021/01/02 05:01:27;;;;;;;;;;;1.00;99.90;;;;;;5068839;28;20322;-83
2021/01/02 05:03:52;;;;;;;;;;;1.00;99.90;;;;;;5068996;28;20379;-83
2021/01/02 05:06:22;;;;;;;;;;;0.90;99.90;;;;;;5069533;28;19912;-83
2021/01/02 05:08:51;;;;;;;;;;;1.00;99.90;;;;;;5070392;28;19917;-83
2021/01/02 05:11:20;;;;;;;;;;;0.90;99.90;;;;;;5063381;28;19917;-83
2021/01/02 05:13:46;;;;;;;;;;;0.80;99.90;;;;;;5061582;28;19920;-83
2021/01/02 05:16:18;;;;;;;;;;;0.80;99.90;;;;;;5068898;28;19912;-83
2021/01/02 05:18:58;;;;;;;;;;;0.90;99.90;;;;;;5069112;28;20417;-83
2021/01/02 05:21:25;;;;;;;;;;;0.90;99.90;;;;;;5069270;28;19951;-83
2021/01/02 05:24:03;;;;;;;;;;;0.90;99.90;;;;;;5068561;28;19920;-83
2021/01/02 05:26:29;;;;;;;;;;;0.90;99.90;;;;;;5069216;28;19917;-83
2021/01/02 05:29:09;;;;;;;;;;;0.90;99.90;;;;;;5068610;28;19919;-84
2021/01/02 05:31:41;;;;;;;;;;;0.90;99.90;;;;;;5068631;28;19912;-84
2021/01/02 05:34:08;;;;;;;;;;;0.90;99.90;;;;;;5068712;28;19916;-83
2021/01/02 05:36:38;;;;;;;;;;;0.90;99.90;;;;;;5068730;28;19912;-83
2021/01/02 05:39:10;;;;;;;;;;;0.90;99.90;;;;;;5068263;28;19920;-83
2021/01/02 05:41:48;;;;;;;;;;;0.90;99.90;;;;;;5070618;28;19908;-84
2021/01/02 05:44:19;;;;;;;;;;;0.80;99.90;;;;;;5072715;28;20022;-83
2021/01/02 05:46:49;;;;;;;;;;;0.80;99.90;;;;;;5072699;28;20485;-84
2021/01/02 05:49:35;;;;;;;;;;;0.90;99.90;;;;;;5072095;28;19971;-83
2021/01/02 05:52:03;;;;;;;;;;;1.00;99.90;;;;;;5073984;28;19912;-83
2021/01/02 05:54:30;;;;;;;;;;;1.00;99.90;;;;;;5069721;28;19913;-84
2021/01/02 05:56:57;;;;;;;;;;;1.00;99.90;;;;;;5069840;28;19912;-83
2021/01/02 05:59:31;;;;;;;;;;;0.90;99.90;;;;;;5072466;28;19919;-83
2021/01/02 06:01:56;;;;;;;;;;;1.00;99.90;;;;;;5072060;28;20691;-83
2021/01/02 06:04:24;;;;;;;;;;;1.00;99.90;;;;;;5071565;28;20011;-83
2021/01/02 06:07:08;;;;;;;;;;;1.00;99.90;;;;;;5072172;28;19963;-83
2021/01/02 06:09:34;;;;;;;;;;;1.00;99.90;;;;;;5072029;28;20348;-83
2021/01/02 06:12:02;;;;;;;;;;;0.90;99.90;;;;;;5072458;28;19912;-83
2021/01/02 06:14:28;;;;;;;;;;;0.90;99.90;;;;;;5072108;28;20375;-83
2021/01/02 06:16:54;;;;;;;;;;;0.90;99.90;;;;;;5072177;28;19919;-83
2021/01/02 06:19:20;;;;;;;;;;;0.80;99.90;;;;;;5071869;28;20200;-83
2021/01/02 06:21:50;;;;;;;;;;;0.90;99.90;;;;;;5072207;28;20219;-83
2021/01/02 06:24:18;;;;;;;;;;;1.00;99.90;;;;;;5072000;28;19920;-83
2021/01/02 06:26:44;;;;;;;;;;;1.00;99.90;;;;;;5071880;28;19913;-83
2021/01/02 06:29:09;;;;;;;;;;;0.90;99.90;;;;;;5071418;28;19919;-83
2021/01/02 06:31:38;;;;;;;;;;;1.00;99.90;;;;;;5071786;28;19916;-83
2021/01/02 06:34:05;;;;;;;;;;;1.00;99.90;;;;;;5071293;28;19962;-83
2021/01/02 06:36:30;;;;;;;;;;;0.90;99.90;;;;;;5071938;28;19919;-84
2021/01/02 06:39:14;;;;;;;;;;;1.00;99.90;;;;;;5071215;28;19912;-83
2021/01/02 06:41:40;;;;;;;;;;;1.00;99.90;;;;;;5071951;28;20036;-83
2021/01/02 06:44:05;;;;;;;;;;;1.00;99.90;;;;;;5081477;28;20054;-83
2021/01/02 06:46:37;;;;;;;;;;;1.00;99.90;;;;;;5061828;28;20179;-83
2021/01/02 06:49:41;;;;;;;;;;;1.00;99.90;;;;;;5071359;28;20383;-84
2021/01/02 06:52:10;;;;;;;;;;;1.00;99.90;;;;;;4993142;28;19964;-83
2021/01/02 06:54:39;;;;;;;;;;;1.00;99.90;;;;;;4992795;28;20049;-83
2021/01/02 06:57:05;;;;;;;;;;;1.00;99.90;;;;;;5026695;28;19913;-84
2021/01/02 06:59:31;;;;;;;;;;;1.10;99.90;;;;;;5052549;28;19913;-83
2021/01/02 07:01:57;;;;;;;;;;;1.10;99.90;;;;;;5069984;28;20035;-83
2021/01/02 07:04:40;;;;;;;;;;;1.10;99.90;;;;;;5061089;28;19958;-82
2021/01/02 07:07:06;;;;;;;;;;;1.10;99.90;;;;;;5056147;28;20363;-84
2021/01/02 07:09:35;;;;;;;;;;;1.00;99.90;;;;;;5061866;28;19913;-83
2021/01/02 07:12:13;;;;;;;;;;;1.00;99.90;;;;;;5065772;28;19908;-84
2021/01/02 07:14:39;;;;;;;;;;;1.00;99.90;;;;;;5055841;28;19917;-83
2021/01/02 07:17:11;;;;;;;;;;;0.90;99.90;;;;;;5059129;28;19917;-83
2021/01/02 07:19:42;;;;;;;;;;;1.00;99.90;;;;;;5059761;28;19962;-83
2021/01/02 07:22:20;;;;;;;;;;;1.00;99.90;;;;;;5072435;28;20310;-83
2021/01/02 07:24:46;;;;;;;;;;;1.00;99.90;;;;;;5066845;28;20348;-83
2021/01/02 07:27:15;;;;;;;;;;;1.00;99.90;;;;;;5067004;28;20003;-83
2021/01/02 07:29:46;;;;;;;;;;;1.00;99.90;;;;;;5054438;28;19913;-83
2021/01/02 07:32:12;;;;;;;;;;;1.00;99.90;;;;;;5064137;28;20295;-83
2021/01/02 07:34:44;;;;;;;;;;;1.00;99.90;;;;;;5069363;28;19912;-84
2021/01/02 07:37:11;;;;;;;;;;;1.10;99.90;;;;;;5066359;28;19954;-83
2021/01/02 07:39:40;;;;;;;;;;;1.00;99.90;;;;;;5067894;28;19936;-84
2021/01/02 07:42:10;;;;;;;;;;;1.00;99.90;;;;;;5068028;28;19920;-83
2021/01/02 07:44:39;;;;;;;;;;;1.00;99.90;;;;;;5058601;28;19974;-85
2021/01/02 07:47:05;;;;;;;;;;;1.00;99.90;;;;;;5058517;28;19913;-83
2021/01/02 07:49:31;;;;;;;;;;;1.10;99.90;;;;;;5052326;28;20245;-84
2021/01/02 07:51:56;;;;;;;;;;;1.10;99.90;;;;;;5068078;28;19991;-84
2021/01/02 07:54:31;;;;;;;;;;;1.10;99.90;;;;;;5064412;28;19913;-83
2021/01/02 07:57:00;;;;;;;;;;;1.20;99.90;;;;;;5067858;28;19919;-83
2021/01/02 07:59:25;;;;;;;;;;;1.10;99.90;;;;;;5060992;28;19920;-83
2021/01/02 08:01:58;;;;;;;;;;;1.10;99.90;;;;;;5067244;28;19912;-84
2021/01/02 08:04:27;;;;;;;;;;;1.10;99.90;;;;;;5061678;28;19928;-84
2021/01/02 08:06:56;;;;;;;;;;;1.10;99.90;;;;;;5065394;28;20046;-84
2021/01/02 08:09:25;;;;;;;;;;;1.10;99.90;;;;;;5060506;28;20060;-84
2021/01/02 08:11:56;;;;;;;;;;;1.10;99.90;;;;;;5064896;28;19912;-83
2021/01/02 08:14:23;;;;;;;;;;;1.20;99.90;;;;;;5067126;28;20390;-84
2021/01/02 08:16:53;;;;;;;;;;;1.20;99.90;;;;;;5067625;28;20333;-84
2021/01/02 08:19:21;;;;;;;;;;;1.10;99.90;;;;;;5062491;28;19912;-84
2021/01/02 08:21:46;;;;;;;;;;;1.20;99.90;;;;;;5067784;28;20436;-83
2021/01/02 08:24:17;;;;;;;;;;;1.20;99.90;;;;;;5062923;28;19952;-84
2021/01/02 08:26:42;;;;;;;;;;;1.20;99.90;;;;;;5055962;28;20356;-84
2021/01/02 08:29:08;;;;;;;;;;;1.20;99.90;;;;;;5055957;28;19919;-84
2021/01/02 08:31:42;;;;;;;;;;;1.30;99.90;;;;;;5061068;28;19920;-84
2021/01/02 08:34:10;;;;;;;;;;;1.30;99.90;;;;;;5057971;28;19917;-84
2021/01/02 08:36:41;;;;;;;;;;;1.30;99.90;;;;;;5067704;28;20115;-84
2021/01/02 08:39:07;;;;;;;;;;;1.40;99.90;;;;;;5062668;28;19936;-84
2021/01/02 08:41:35;;;;;;;;;;;1.30;99.90;;;;;;5060286;28;20366;-84
2021/01/02 08:44:02;;;;;;;;;;;1.40;99.90;;;;;;5057912;28;19929;-84
2021/01/02 08:46:27;;;;;;;;;;;1.40;99.90;;;;;;5067588;28;19939;-84
2021/01/02 08:48:55;;;;;;;;;;;1.40;99.90;;;;;;5064032;28;19993;-84
2021/01/02 08:51:23;;;;;;;;;;;1.40;99.90;;;;;;5066248;28;20268;-84
2021/01/02 08:53:51;;;;;;;;;;;1.40;99.90;;;;;;5067462;28;19912;-84
2021/01/02 08:56:35;;;;;;;;;;;1.40;99.90;;;;;;5059176;28;19970;-84
2021/01/02 08:59:10;;;;;;;;;;;1.30;99.90;;;;;;5067993;28;19948;-84
2021/01/02 09:01:36;;;;;;;;;;;1.40;99.90;;;;;;5069603;28;19923;-84
2021/01/02 09:04:16;;;;;;;;;;;1.50;99.90;;;;;;5074037;28;19920;-84
2021/01/02 09:06:47;;;;;;;;;;;1.50;99.90;;;;;;5069409;28;19958;-84
2021/01/02 09:09:13;;;;;;;;;;;1.50;99.90;;;;;;5065385;28;20376;-84
2021/01/02 09:11:47;;;;;;;;;;;1.50;99.90;;;;;;5064691;28;19966;-84
2021/01/02 09:14:13;;;;;;;;;;;1.50;99.90;;;;;;5064373;28;20377;-84
2021/01/02 09:16:38;;;;;;;;;;;1.60;99.90;;;;;;5064947;28;19913;-84
2021/01/02 09:19:04;;;;;;;;;;;1.60;99.90;;;;;;5073229;28;19959;-84
2021/01/02 09:21:29;;;;;;;;;;;1.60;99.90;;;;;;5072864;28;20003;-84
2021/01/02 09:23:57;;;;;;;;;;;1.70;99.90;;;;;;5072681;28;19919;-84
2021/01/02 09:26:23;;;;;;;;;;;1.70;99.90;;;;;;5071308;28;19917;-84
2021/01/02 09:28:51;;;;;;;;;;;1.70;99.90;;;;;;5066705;28;20199;-84
2021/01/02 09:31:19;;;;;;;;;;;1.70;99.90;;;;;;5072930;28;20299;-84
2021/01/02 09:33:45;;;;;;;;;;;1.70;99.90;;;;;;5072292;28;19915;-85
2021/01/02 09:36:15;;;;;;;;;;;1.70;99.90;;;;;;5071325;28;19913;-84
2021/01/02 09:38:44;;;;;;;;;;;1.70;99.90;;;;;;5061187;28;20008;-84
2021/01/02 09:41:10;;;;;;;;;;;1.70;99.90;;;;;;5066348;28;19924;-85
2021/01/02 09:43:36;;;;;;;;;;;1.80;99.90;;;;;;5071918;28;19912;-84
2021/01/02 09:46:02;;;;;;;;;;;1.80;99.90;;;;;;5073481;28;19988;-84
2021/01/02 09:48:30;;;;;;;;;;;1.80;99.90;;;;;;5072541;28;19953;-84
2021/01/02 09:50:55;;;;;;;;;;;1.80;99.90;;;;;;5071315;28;19916;-84
2021/01/02 09:53:31;;;;;;;;;;;1.90;99.90;;;;;;5222703;22;20015;31
2021/01/02 09:55:57;;;;;;;;;;;1.90;99.90;;;;;;5044961;28;19928;-84
2021/01/02 09:58:23;;;;;;;;;;;1.90;99.90;;;;;;5046668;28;19913;-85
2021/01/02 10:00:52;;;;;;;;;;;2.00;99.90;;;;;;5043947;28;20384;-84
2021/01/02 10:03:17;;;;;;;;;;;2.00;99.90;;;;;;5051459;28;19913;-86
2021/01/02 10:05:43;;;;;;;;;;;2.00;99.90;;;;;;5046674;28;20284;-85
2021/01/02 10:08:09;;;;;;;;;;;2.00;99.90;;;;;;5043129;28;19978;-84
2021/01/02 10:10:35;;;;;;;;;;;2.00;99.90;;;;;;5068966;28;19916;-84
2021/01/02 10:13:05;;;;;;;;;;;2.00;99.90;;;;;;5063178;28;19974;-84
2021/01/02 10:15:31;;;;;;;;;;;2.10;99.90;;;;;;5042728;28;19912;-85
2021/01/02 10:17:57;;;;;;;;;;;2.10;99.90;;;;;;5051565;28;19943;-85
2021/01/02 10:20:25;;;;;;;;;;;2.10;99.90;;;;;;5061751;28;19913;-84
2021/01/02 10:22:51;;;;;;;;;;;2.20;99.90;;;;;;5050303;28;19919;-85
2021/01/02 10:25:16;;;;;;;;;;;2.30;99.90;;;;;;5049880;28;19929;-86
2021/01/02 10:27:42;;;;;;;;;;;2.20;99.90;;;;;;5051833;28;19913;-84
2021/01/02 10:30:08;;;;;;;;;;;2.30;99.90;;;;;;5051539;28;19920;-85
2021/01/02 10:32:34;;;;;;;;;;;2.30;99.90;;;;;;5169868;22;19924;-84
2021/01/02 10:35:02;;;;;;;;;;;2.30;99.90;;;;;;5068130;28;19959;-85
2021/01/02 10:37:29;;;;;;;;;;;2.20;99.90;;;;;;5064686;28;19919;-84
2021/01/02 10:39:54;;;;;;;;;;;2.30;99.90;;;;;;5070073;28;19912;-84
2021/01/02 10:44:54;;;;;;;;;;;2.30;99.90;;;;;;5086288;28;19935;-85
2021/01/02 10:47:23;;;;;;;;;;;2.30;99.90;;;;;;5062141;28;19920;-85
2021/01/02 10:49:49;;;;;;;;;;;2.30;99.90;;;;;;5063457;28;19916;-85
2021/01/02 10:52:18;;;;;;;;;;;2.40;99.90;;;;;;5086087;28;19942;-85
2021/01/02 10:54:44;;;;;;;;;;;2.40;99.90;;;;;;5069195;28;19942;-85
2021/01/02 10:57:10;;;;;;;;;;;2.50;99.90;;;;;;5065733;28;20440;-85
2021/01/02 10:59:35;;;;;;;;;;;2.50;99.90;;;;;;5066697;28;19916;-85
2021/01/02 11:02:01;;;;;;;;;;;2.50;99.90;;;;;;5067097;28;19919;-85
2021/01/02 11:04:27;;;;;;;;;;;2.60;99.90;;;;;;5065547;28;20371;-85
2021/01/02 11:06:55;;;;;;;;;;;2.50;99.90;;;;;;5064268;28;19951;-85
2021/01/02 11:09:22;;;;;;;;;;;2.50;99.90;;;;;;5155467;22;20394;-85
2021/01/02 11:11:47;;;;;;;;;;;2.60;99.90;;;;;;5051902;28;19963;-85
2021/01/02 11:14:13;;;;;;;;;;;2.60;99.90;;;;;;5021701;28;20363;-85
2021/01/02 11:16:41;;;;;;;;;;;2.60;99.90;;;;;;5032023;28;19916;-85
2021/01/02 11:19:13;;;;;;;;;;;2.60;99.90;;;;;;5030397;28;19955;-85
2021/01/02 11:21:39;;;;;;;;;;;2.60;99.90;;;;;;5023245;28;20395;-85
2021/01/02 11:24:07;;;;;;;;;;;2.50;99.90;;;;;;5164555;23;20401;-85
2021/01/02 11:26:35;;;;;;;;;;;2.50;99.90;;;;;;5110536;28;20401;-85
2021/01/02 11:29:01;;;;;;;;;;;2.60;99.90;;;;;;5222735;22;19928;-85
2021/01/02 11:31:28;;;;;;;;;;;2.60;99.90;;;;;;5111242;28;19919;-85
2021/01/02 11:33:53;;;;;;;;;;;2.60;99.90;;;;;;5114172;27;19919;-86
2021/01/02 11:36:21;;;;;;;;;;;2.70;99.90;;;;;;5132429;27;19911;-85
2021/01/02 11:41:35;;;;;;;;;;;2.70;99.90;;;;;;5420963;22;21324;-85
2021/01/02 11:44:01;;;;;;;;;;;2.70;99.90;;;;;;5476814;22;19928;-85
2021/01/02 11:46:31;;;;;;;;;;;2.70;99.90;;;;;;5058975;28;19916;-85
2021/01/02 11:48:56;;;;;;;;;;;2.80;99.90;;;;;;5053650;28;19947;-85
2021/01/02 11:51:22;;;;;;;;;;;2.70;99.90;;;;;;5319869;22;21301;-91
2021/01/02 11:53:50;;;;;;;;;;;2.70;99.90;;;;;;5062558;28;19927;-88
2021/01/02 11:56:22;;;;;;;;;;;2.80;99.90;;;;;;5073977;28;19912;-89
2021/01/02 11:58:48;;;;;;;;;;;2.80;99.90;;;;;;5073214;28;19916;-87
2021/01/02 12:01:14;;;;;;;;;;;2.80;99.90;;;;;;5091966;28;19908;-90
2021/01/02 12:03:39;;;;;;;;;;;2.80;99.90;;;;;;5070757;28;20355;-91
2021/01/02 12:06:07;;;;;;;;;;;2.80;99.90;;;;;;5060026;28;19924;-91
2021/01/02 12:08:35;;;;;;;;;;;2.80;99.90;;;;;;5070918;28;19999;-90
2021/01/02 12:11:01;;;;;;;;;;;2.80;99.90;;;;;;5061416;28;20226;-91
2021/01/02 12:13:31;;;;;;;;;;;2.80;99.90;;;;;;5073420;28;20008;-89
2021/01/02 12:15:59;;;;;;;;;;;2.80;99.90;;;;;;5074109;28;19908;-91
2021/01/02 12:18:25;;;;;;;;;;;2.90;99.90;;;;;;5073559;28;19923;-89
2021/01/02 12:20:50;;;;;;;;;;;2.90;99.90;;;;;;5073193;28;19912;-90
2021/01/02 12:23:16;;;;;;;;;;;2.90;99.90;;;;;;5066825;28;20023;-89
2021/01/02 12:25:41;;;;;;;;;;;2.90;99.90;;;;;;5070610;28;19916;-90
2021/01/02 12:28:07;;;;;;;;;;;2.80;99.90;;;;;;5070991;28;19928;-89
2021/01/02 12:30:32;;;;;;;;;;;2.80;99.90;;;;;;5067202;28;19985;-89
2021/01/02 12:32:58;;;;;;;;;;;2.80;99.90;;;;;;5070951;28;19908;-92
2021/01/02 12:35:25;;;;;;;;;;;2.90;99.90;;;;;;5198725;22;20312;-87
2021/01/02 12:37:51;;;;;;;;;;;2.80;99.90;;;;;;5112037;27;19966;-86
2021/01/02 12:40:17;;;;;;;;;;;2.80;99.90;;;;;;5109679;28;19916;-86
2021/01/02 12:42:44;;;;;;;;;;;2.80;99.90;;;;;;5113190;28;19918;-86
2021/01/02 12:45:11;;;;;;;;;;;2.90;99.90;;;;;;5109050;28;19920;-85
2021/01/02 12:47:39;;;;;;;;;;;2.90;99.90;;;;;;5109312;28;19920;-86
2021/01/02 12:50:06;;;;;;;;;;;2.90;99.90;;;;;;5110448;28;19908;-87
2021/01/02 12:52:35;;;;;;;;;;;2.90;99.90;;;;;;5109879;28;19915;-84
2021/01/02 12:55:07;;;;;;;;;;;2.90;99.90;;;;;;5110186;28;19934;-84
2021/01/02 12:57:36;;;;;;;;;;;2.90;99.90;;;;;;5109836;28;20028;-87
2021/01/02 13:00:04;;;;;;;;;;;2.90;99.90;;;;;;5108306;28;19916;-84
2021/01/02 14:51:20;;;;;;;;;;;2.70;99.90;;;;;;5100280;28;19937;-84
2021/01/02 14:53:48;;;;;;;;;;;2.70;99.90;;;;;;5091133;28;19920;-85
2021/01/02 14:56:14;;;;;;;;;;;2.70;99.90;;;;;;5089142;28;19916;-84
2021/01/02 14:58:39;;;;;;;;;;;2.70;99.90;;;;;;5092638;28;19918;-84
2021/01/02 15:01:05;;;;;;;;;;;2.70;99.90;;;;;;5088375;28;19911;-84
2021/01/02 15:03:30;;;;;;;;;;;2.70;99.90;;;;;;5113364;28;19908;-84
2021/01/02 15:05:56;;;;;;;;;;;2.70;99.90;;;;;;5089644;28;19927;-84
2021/01/02 15:08:24;;;;;;;;;;;2.70;99.90;;;;;;5093958;28;19950;-84
2021/01/02 15:10:50;;;;;;;;;;;2.60;99.90;;;;;;5090513;28;20274;-84
2021/01/02 15:13:15;;;;;;;;;;;2.60;99.90;;;;;;5090017;28;19915;-84
2021/01/02 15:15:41;;;;;;;;;;;2.60;99.90;;;;;;5083166;28;20286;-85
2021/01/02 15:18:07;;;;;;;;;;;2.60;99.90;;;;;;5090719;28;19918;-86
2021/01/02 15:20:55;;;;;;;;;;;2.60;99.90;;;;;;5088390;28;19916;-85
2021/01/02 15:23:39;;;;;;;;;;;2.70;99.90;;;;;;5112072;28;19912;-86
2021/01/02 15:26:05;;;;;;;;;;;2.60;99.90;;;;;;5104863;28;19923;-86
2021/01/02 15:28:33;;;;;;;;;;;2.60;99.90;;;;;;5090230;28;20006;-86
2021/01/02 15:31:01;;;;;;;;;;;2.60;99.90;;;;;;5084885;28;19912;-86
2021/01/02 15:33:27;;;;;;;;;;;2.60;99.90;;;;;;5094466;28;19912;-84
2021/01/02 15:35:56;;;;;;;;;;;2.60;99.90;;;;;;5089856;28;19919;-84
2021/01/02 15:38:27;;;;;;;;;;;2.60;99.90;;;;;;5094163;28;19916;-84
2021/01/02 15:40:58;;;;;;;;;;;2.60;99.90;;;;;;5094417;28;19964;-86
2021/01/02 15:43:29;;;;;;;;;;;2.50;99.90;;;;;;5094038;28;20426;-86
2021/01/02 15:45:58;;;;;;;;;;;2.50;99.90;;;;;;5094316;28;20332;-86
2021/01/02 15:48:24;;;;;;;;;;;2.50;99.90;;;;;;5094061;28;19938;-86
2021/01/02 15:50:50;;;;;;;;;;;2.60;99.90;;;;;;5091020;28;20375;-86
2021/01/02 15:53:17;;;;;;;;;;;2.60;99.90;;;;;;5090544;28;19995;-86
2021/01/02 15:55:45;;;;;;;;;;;2.50;99.90;;;;;;5090420;28;19912;-85
2021/01/02 15:58:15;;;;;;;;;;;2.50;99.90;;;;;;5090272;28;19950;-85
2021/01/02 16:00:41;;;;;;;;;;;2.50;99.90;;;;;;5086130;28;19919;-86
2021/01/02 16:03:09;;;;;;;;;;;2.50;99.90;;;;;;5070252;28;20338;-84
2021/01/02 16:05:37;;;;;;;;;;;2.50;99.90;;;;;;5070402;28;20028;-85
2021/01/02 16:08:03;;;;;;;;;;;2.50;99.90;;;;;;5070605;28;19912;-84
2021/01/02 16:10:31;;;;;;;;;;;2.50;99.90;;;;;;5104705;28;20325;-85
2021/01/02 16:12:59;;;;;;;;;;;2.50;99.90;;;;;;5073135;28;20347;-85
2021/01/02 16:15:27;;;;;;;;;;;2.50;99.90;;;;;;5195505;22;19927;-88
2021/01/02 16:17:53;;;;;;;;;;;2.50;99.90;;;;;;5094924;28;19912;-88
2021/01/02 16:20:21;;;;;;;;;;;2.50;99.90;;;;;;5097361;28;19908;-91
2021/01/02 16:22:46;;;;;;;;;;;2.50;99.90;;;;;;5097357;28;20470;-89
2021/01/02 16:25:14;;;;;;;;;;;2.50;99.90;;;;;;5096702;28;19923;-88
2021/01/02 16:27:40;;;;;;;;;;;2.50;99.90;;;;;;5097335;28;19907;-89
2021/01/02 16:30:06;;;;;;;;;;;2.40;99.90;;;;;;5096390;28;19919;-90
2021/01/02 16:32:32;;;;;;;;;;;2.40;99.90;;;;;;5096913;28;19912;-88
2021/01/02 16:34:58;;;;;;;;;;;2.40;99.90;;;;;;5097046;28;19907;-90
2021/01/02 16:37:27;;;;;;;;;;;2.40;99.90;;;;;;5096476;28;19908;-87